sensor_id;sensor_type;location;lat;lon;timestamp;P1;durP1;ratioP1;P2;durP2;ratioP2
1164;SDS011;571;50.930;6.926;2023-02-28T03:46:01;2.30;;;2.20;;
1164;SDS011;571;50.930;6.926;2023-02-28T03:48:35;3.10;;;2.90;;
1164;SDS011;571;50.930;6.926;2023-02-28T03:51:06;2.80;;;2.60;;
1164;SDS011;571;50.930;6.926;2023-02-28T03:53:39;2.90;;;2.67;;
1164;SDS011;571;50.930;6.926;2023-02-28T03:56:11;3.23;;;2.93;;
1164;SDS011;571;50.930;6.926;2023-02-28T03:58:44;3.27;;;2.73;;
1164;SDS011;571;50.930;6.926;2023-02-28T04:01:20;4.03;;;3.00;;
1164;SDS011;571;50.930;6.926;2023-02-28T04:03:50;3.07;;;2.77;;
1164;SDS011;571;50.930;6.926;2023-02-28T04:06:18;3.03;;;2.73;;
1164;SDS011;571;50.930;6.926;2023-02-28T04:08:46;2.87;;;2.67;;
1164;SDS011;571;50.930;6.926;2023-02-28T04:11:16;4.27;;;2.93;;
1164;SDS011;571;50.930;6.926;2023-02-28T04:13:47;3.40;;;2.50;;
1164;SDS011;571;50.930;6.926;2023-02-28T04:16:14;3.50;;;3.00;;
1164;SDS011;571;50.930;6.926;2023-02-28T04:18:42;3.07;;;2.77;;
1164;SDS011;571;50.930;6.926;2023-02-28T04:21:09;3.07;;;2.87;;
1164;SDS011;571;50.930;6.926;2023-02-28T04:23:36;2.73;;;2.53;;
1164;SDS011;571;50.930;6.926;2023-02-28T04:26:03;3.27;;;2.93;;
1164;SDS011;571;50.930;6.926;2023-02-28T04:28:30;5.70;;;3.77;;
1164;SDS011;571;50.930;6.926;2023-02-28T04:30:57;3.33;;;2.70;;
1164;SDS011;571;50.930;6.926;2023-02-28T04:33:27;3.80;;;2.97;;
1164;SDS011;571;50.930;6.926;2023-02-28T04:35:59;3.30;;;3.00;;
1164;SDS011;571;50.930;6.926;2023-02-28T04:38:27;3.40;;;2.63;;
1164;SDS011;571;50.930;6.926;2023-02-28T04:40:56;6.10;;;3.20;;
1164;SDS011;571;50.930;6.926;2023-02-28T04:43:23;2.97;;;2.70;;
1164;SDS011;571;50.930;6.926;2023-02-28T04:45:50;4.40;;;3.20;;
1164;SDS011;571;50.930;6.926;2023-02-28T04:48:16;2.93;;;2.73;;
1164;SDS011;571;50.930;6.926;2023-02-28T04:50:43;4.43;;;3.13;;
1164;SDS011;571;50.930;6.926;2023-02-28T04:53:11;2.77;;;2.40;;
1164;SDS011;571;50.930;6.926;2023-02-28T04:55:38;3.37;;;2.90;;
1164;SDS011;571;50.930;6.926;2023-02-28T04:58:05;5.43;;;3.00;;
1164;SDS011;571;50.930;6.926;2023-02-28T05:00:32;4.03;;;2.97;;
1164;SDS011;571;50.930;6.926;2023-02-28T05:02:59;3.53;;;2.67;;
1164;SDS011;571;50.930;6.926;2023-02-28T05:05:25;2.77;;;2.43;;
1164;SDS011;571;50.930;6.926;2023-02-28T05:07:52;4.00;;;3.10;;
1164;SDS011;571;50.930;6.926;2023-02-28T05:10:21;3.20;;;2.80;;
1164;SDS011;571;50.930;6.926;2023-02-28T05:12:48;3.87;;;3.37;;
1164;SDS011;571;50.930;6.926;2023-02-28T05:15:15;5.27;;;3.10;;
1164;SDS011;571;50.930;6.926;2023-02-28T05:17:42;3.63;;;2.70;;
1164;SDS011;571;50.930;6.926;2023-02-28T05:20:09;6.47;;;4.37;;
1164;SDS011;571;50.930;6.926;2023-02-28T05:22:38;3.67;;;3.30;;
1164;SDS011;571;50.930;6.926;2023-02-28T05:25:05;3.67;;;3.17;;
1164;SDS011;571;50.930;6.926;2023-02-28T05:27:34;3.60;;;2.83;;
1164;SDS011;571;50.930;6.926;2023-02-28T05:30:01;3.10;;;2.80;;
1164;SDS011;571;50.930;6.926;2023-02-28T05:32:29;3.53;;;2.80;;
1164;SDS011;571;50.930;6.926;2023-02-28T05:34:56;4.40;;;3.33;;
1164;SDS011;571;50.930;6.926;2023-02-28T05:37:22;5.33;;;2.67;;
1164;SDS011;571;50.930;6.926;2023-02-28T05:39:49;2.73;;;2.53;;
1164;SDS011;571;50.930;6.926;2023-02-28T05:42:16;5.50;;;3.60;;
1164;SDS011;571;50.930;6.926;2023-02-28T05:44:44;2.90;;;2.70;;
1164;SDS011;571;50.930;6.926;2023-02-28T05:47:11;3.93;;;3.30;;
1164;SDS011;571;50.930;6.926;2023-02-28T05:49:40;2.77;;;2.57;;
1164;SDS011;571;50.930;6.926;2023-02-28T05:52:06;3.60;;;3.00;;
1164;SDS011;571;50.930;6.926;2023-02-28T05:54:33;3.30;;;2.60;;
1164;SDS011;571;50.930;6.926;2023-02-28T05:57:00;3.20;;;2.97;;
1164;SDS011;571;50.930;6.926;2023-02-28T05:59:27;3.20;;;2.90;;
1164;SDS011;571;50.930;6.926;2023-02-28T06:01:55;3.03;;;2.30;;
1164;SDS011;571;50.930;6.926;2023-02-28T06:04:21;2.17;;;1.97;;
1164;SDS011;571;50.930;6.926;2023-02-28T06:06:48;3.93;;;3.70;;
1164;SDS011;571;50.930;6.926;2023-02-28T06:09:16;5.43;;;3.67;;
1164;SDS011;571;50.930;6.926;2023-02-28T06:11:44;6.57;;;3.40;;
1164;SDS011;571;50.930;6.926;2023-02-28T06:14:12;4.40;;;3.33;;
1164;SDS011;571;50.930;6.926;2023-02-28T06:16:41;6.10;;;2.83;;
1164;SDS011;571;50.930;6.926;2023-02-28T06:19:10;3.43;;;2.57;;
1164;SDS011;571;50.930;6.926;2023-02-28T06:21:37;3.90;;;3.60;;
1164;SDS011;571;50.930;6.926;2023-02-28T06:24:04;3.10;;;2.90;;
1164;SDS011;571;50.930;6.926;2023-02-28T06:26:31;7.97;;;3.20;;
1164;SDS011;571;50.930;6.926;2023-02-28T06:28:58;4.80;;;3.43;;
1164;SDS011;571;50.930;6.926;2023-02-28T06:31:26;3.10;;;2.90;;
1164;SDS011;571;50.930;6.926;2023-02-28T06:33:54;7.67;;;3.60;;
1164;SDS011;571;50.930;6.926;2023-02-28T06:36:22;2.60;;;2.40;;
1164;SDS011;571;50.930;6.926;2023-02-28T06:38:49;3.43;;;2.90;;
1164;SDS011;571;50.930;6.926;2023-02-28T06:41:19;5.70;;;2.60;;
1164;SDS011;571;50.930;6.926;2023-02-28T06:43:46;4.67;;;3.30;;
1164;SDS011;571;50.930;6.926;2023-02-28T06:46:13;2.40;;;2.20;;
1164;SDS011;571;50.930;6.926;2023-02-28T06:48:40;3.63;;;2.77;;
1164;SDS011;571;50.930;6.926;2023-02-28T06:51:08;3.40;;;2.80;;
1164;SDS011;571;50.930;6.926;2023-02-28T06:53:37;2.60;;;2.50;;
1164;SDS011;571;50.930;6.926;2023-02-28T06:56:04;5.13;;;3.10;;
1164;SDS011;571;50.930;6.926;2023-02-28T06:58:31;4.17;;;2.60;;
1164;SDS011;571;50.930;6.926;2023-02-28T07:00:58;5.83;;;3.13;;
1164;SDS011;571;50.930;6.926;2023-02-28T07:03:25;4.10;;;3.27;;
1164;SDS011;571;50.930;6.926;2023-02-28T07:05:52;3.57;;;3.23;;
1164;SDS011;571;50.930;6.926;2023-02-28T07:08:21;5.23;;;3.27;;
1164;SDS011;571;50.930;6.926;2023-02-28T07:10:52;3.17;;;2.87;;
1164;SDS011;571;50.930;6.926;2023-02-28T07:13:19;3.73;;;3.43;;
1164;SDS011;571;50.930;6.926;2023-02-28T07:15:52;3.03;;;2.60;;
1164;SDS011;571;50.930;6.926;2023-02-28T07:18:19;3.87;;;3.40;;
1164;SDS011;571;50.930;6.926;2023-02-28T07:20:46;3.10;;;2.87;;
1164;SDS011;571;50.930;6.926;2023-02-28T07:23:13;4.47;;;3.20;;
1164;SDS011;571;50.930;6.926;2023-02-28T07:25:39;5.10;;;4.07;;
1164;SDS011;571;50.930;6.926;2023-02-28T07:28:07;3.10;;;2.80;;
1164;SDS011;571;50.930;6.926;2023-02-28T07:30:34;4.43;;;3.40;;
1164;SDS011;571;50.930;6.926;2023-02-28T07:33:01;3.50;;;3.20;;
1164;SDS011;571;50.930;6.926;2023-02-28T07:35:28;4.23;;;3.27;;
1164;SDS011;571;50.930;6.926;2023-02-28T07:37:56;3.70;;;3.40;;
1164;SDS011;571;50.930;6.926;2023-02-28T07:40:23;9.30;;;3.60;;
1164;SDS011;571;50.930;6.926;2023-02-28T07:42:50;3.80;;;3.30;;
1164;SDS011;571;50.930;6.926;2023-02-28T07:45:18;3.23;;;3.00;;
1164;SDS011;571;50.930;6.926;2023-02-28T07:47:45;3.50;;;3.20;;
1164;SDS011;571;50.930;6.926;2023-02-28T07:50:13;5.07;;;2.43;;
1164;SDS011;571;50.930;6.926;2023-02-28T07:52:41;4.80;;;3.10;;
1164;SDS011;571;50.930;6.926;2023-02-28T07:55:08;3.07;;;2.87;;
1164;SDS011;571;50.930;6.926;2023-02-28T07:57:35;3.17;;;2.90;;
1164;SDS011;571;50.930;6.926;2023-02-28T08:00:02;3.07;;;2.80;;
1164;SDS011;571;50.930;6.926;2023-02-28T08:02:31;3.70;;;3.23;;
1164;SDS011;571;50.930;6.926;2023-02-28T08:04:58;3.53;;;3.23;;
1164;SDS011;571;50.930;6.926;2023-02-28T08:07:25;3.20;;;2.33;;
1164;SDS011;571;50.930;6.926;2023-02-28T08:09:52;3.17;;;2.80;;
1164;SDS011;571;50.930;6.926;2023-02-28T08:12:19;2.60;;;2.40;;
1164;SDS011;571;50.930;6.926;2023-02-28T08:14:46;7.57;;;2.67;;
1164;SDS011;571;50.930;6.926;2023-02-28T08:17:13;2.40;;;2.20;;
1164;SDS011;571;50.930;6.926;2023-02-28T08:19:41;3.20;;;2.37;;
1164;SDS011;571;50.930;6.926;2023-02-28T08:22:07;2.90;;;2.70;;
1164;SDS011;571;50.930;6.926;2023-02-28T08:24:34;3.10;;;2.80;;
1164;SDS011;571;50.930;6.926;2023-02-28T08:27:01;2.47;;;2.27;;
1164;SDS011;571;50.930;6.926;2023-02-28T08:29:27;2.80;;;2.60;;
1164;SDS011;571;50.930;6.926;2023-02-28T08:31:55;2.80;;;2.60;;
1164;SDS011;571;50.930;6.926;2023-02-28T08:34:21;4.07;;;2.90;;
1164;SDS011;571;50.930;6.926;2023-02-28T08:36:50;2.73;;;2.53;;
1164;SDS011;571;50.930;6.926;2023-02-28T08:39:18;2.27;;;2.07;;
1164;SDS011;571;50.930;6.926;2023-02-28T08:41:45;2.50;;;2.23;;
1164;SDS011;571;50.930;6.926;2023-02-28T08:44:11;2.80;;;2.60;;
1164;SDS011;571;50.930;6.926;2023-02-28T08:46:38;2.50;;;2.30;;
1164;SDS011;571;50.930;6.926;2023-02-28T08:49:05;3.53;;;1.97;;
1164;SDS011;571;50.930;6.926;2023-02-28T08:51:32;3.60;;;3.00;;
1164;SDS011;571;50.930;6.926;2023-02-28T08:54:00;2.90;;;2.33;;
1164;SDS011;571;50.930;6.926;2023-02-28T08:56:28;2.83;;;2.00;;
1164;SDS011;571;50.930;6.926;2023-02-28T08:58:56;3.00;;;1.97;;
1164;SDS011;571;50.930;6.926;2023-02-28T09:01:23;1.80;;;1.70;;
1164;SDS011;571;50.930;6.926;2023-02-28T09:03:53;2.23;;;1.80;;
1164;SDS011;571;50.930;6.926;2023-02-28T09:06:22;2.20;;;2.00;;
1164;SDS011;571;50.930;6.926;2023-02-28T09:08:50;1.70;;;1.60;;
1164;SDS011;571;50.930;6.926;2023-02-28T09:11:18;1.90;;;1.73;;
1164;SDS011;571;50.930;6.926;2023-02-28T09:13:45;1.63;;;1.53;;
1164;SDS011;571;50.930;6.926;2023-02-28T09:16:13;2.63;;;2.07;;
1164;SDS011;571;50.930;6.926;2023-02-28T09:18:41;2.70;;;1.70;;
1164;SDS011;571;50.930;6.926;2023-02-28T09:21:09;1.53;;;1.40;;
1164;SDS011;571;50.930;6.926;2023-02-28T09:23:39;3.10;;;1.63;;
1164;SDS011;571;50.930;6.926;2023-02-28T09:26:06;1.90;;;1.77;;
1164;SDS011;571;50.930;6.926;2023-02-28T09:28:34;1.60;;;1.50;;
1164;SDS011;571;50.930;6.926;2023-02-28T09:31:01;5.33;;;1.60;;
1164;SDS011;571;50.930;6.926;2023-02-28T09:33:29;2.03;;;1.60;;
1164;SDS011;571;50.930;6.926;2023-02-28T09:36:00;2.70;;;1.93;;
1164;SDS011;571;50.930;6.926;2023-02-28T09:38:29;4.07;;;1.83;;
1164;SDS011;571;50.930;6.926;2023-02-28T09:40:57;3.50;;;2.10;;
1164;SDS011;571;50.930;6.926;2023-02-28T09:43:26;1.53;;;1.40;;
1164;SDS011;571;50.930;6.926;2023-02-28T09:45:56;1.63;;;1.53;;
1164;SDS011;571;50.930;6.926;2023-02-28T09:48:31;1.67;;;1.57;;
1164;SDS011;571;50.930;6.926;2023-02-28T09:51:02;2.23;;;1.50;;
1164;SDS011;571;50.930;6.926;2023-02-28T09:53:32;2.33;;;1.73;;
1164;SDS011;571;50.930;6.926;2023-02-28T09:56:01;1.50;;;1.30;;
1164;SDS011;571;50.930;6.926;2023-02-28T09:58:32;2.27;;;1.93;;
1164;SDS011;571;50.930;6.926;2023-02-28T10:01:06;2.27;;;1.73;;
1164;SDS011;571;50.930;6.926;2023-02-28T10:03:38;1.90;;;1.80;;
1164;SDS011;571;50.930;6.926;2023-02-28T10:06:11;5.63;;;2.00;;
1164;SDS011;571;50.930;6.926;2023-02-28T10:08:43;2.20;;;1.67;;
1164;SDS011;571;50.930;6.926;2023-02-28T10:11:17;3.50;;;1.63;;
1164;SDS011;571;50.930;6.926;2023-02-28T10:13:48;2.50;;;1.83;;
1164;SDS011;571;50.930;6.926;2023-02-28T10:16:22;1.50;;;1.40;;
1164;SDS011;571;50.930;6.926;2023-02-28T10:18:52;2.00;;;1.80;;
1164;SDS011;571;50.930;6.926;2023-02-28T10:21:25;3.00;;;2.70;;
1164;SDS011;571;50.930;6.926;2023-02-28T10:23:58;2.77;;;2.10;;
1164;SDS011;571;50.930;6.926;2023-02-28T10:26:30;6.70;;;1.67;;
1164;SDS011;571;50.930;6.926;2023-02-28T10:28:58;2.40;;;2.20;;
1164;SDS011;571;50.930;6.926;2023-02-28T10:31:27;2.00;;;1.80;;
1164;SDS011;571;50.930;6.926;2023-02-28T10:33:54;4.10;;;2.43;;
1164;SDS011;571;50.930;6.926;2023-02-28T10:36:21;2.17;;;1.97;;
1164;SDS011;571;50.930;6.926;2023-02-28T10:38:48;2.97;;;2.47;;
1164;SDS011;571;50.930;6.926;2023-02-28T10:41:16;2.47;;;1.63;;
1164;SDS011;571;50.930;6.926;2023-02-28T10:43:53;1.97;;;1.60;;
1164;SDS011;571;50.930;6.926;2023-02-28T10:46:41;2.83;;;1.90;;
1164;SDS011;571;50.930;6.926;2023-02-28T10:49:13;3.10;;;2.07;;
1164;SDS011;571;50.930;6.926;2023-02-28T10:51:43;1.53;;;1.43;;
1164;SDS011;571;50.930;6.926;2023-02-28T10:54:15;2.27;;;1.80;;
1164;SDS011;571;50.930;6.926;2023-02-28T10:56:44;2.60;;;2.37;;
1164;SDS011;571;50.930;6.926;2023-02-28T10:59:26;3.57;;;2.13;;
1164;SDS011;571;50.930;6.926;2023-02-28T11:01:55;2.17;;;1.80;;
1164;SDS011;571;50.930;6.926;2023-02-28T11:04:32;2.77;;;2.50;;
1164;SDS011;571;50.930;6.926;2023-02-28T11:07:04;2.30;;;2.07;;
1164;SDS011;571;50.930;6.926;2023-02-28T11:09:32;2.10;;;1.50;;
1164;SDS011;571;50.930;6.926;2023-02-28T11:12:01;2.00;;;1.80;;
1164;SDS011;571;50.930;6.926;2023-02-28T11:14:30;2.37;;;2.17;;
1164;SDS011;571;50.930;6.926;2023-02-28T11:17:02;3.00;;;2.70;;
1164;SDS011;571;50.930;6.926;2023-02-28T11:19:40;2.50;;;2.10;;
1164;SDS011;571;50.930;6.926;2023-02-28T11:22:15;3.13;;;2.10;;
1164;SDS011;571;50.930;6.926;2023-02-28T11:24:45;2.77;;;2.57;;
1164;SDS011;571;50.930;6.926;2023-02-28T11:27:24;5.23;;;2.30;;
1164;SDS011;571;50.930;6.926;2023-02-28T11:29:52;2.77;;;2.43;;
1164;SDS011;571;50.930;6.926;2023-02-28T11:32:21;2.53;;;2.00;;
1164;SDS011;571;50.930;6.926;2023-02-28T11:34:59;2.87;;;2.60;;
1164;SDS011;571;50.930;6.926;2023-02-28T11:37:28;2.23;;;2.03;;
1164;SDS011;571;50.930;6.926;2023-02-28T11:39:56;2.90;;;2.30;;
1164;SDS011;571;50.930;6.926;2023-02-28T11:42:38;2.93;;;2.63;;
1164;SDS011;571;50.930;6.926;2023-02-28T11:45:15;3.60;;;1.83;;
1164;SDS011;571;50.930;6.926;2023-02-28T11:48:00;2.53;;;2.30;;
1164;SDS011;571;50.930;6.926;2023-02-28T11:50:42;3.00;;;2.60;;
1164;SDS011;571;50.930;6.926;2023-02-28T11:53:17;2.63;;;2.43;;
1164;SDS011;571;50.930;6.926;2023-02-28T11:55:59;3.23;;;2.43;;
1164;SDS011;571;50.930;6.926;2023-02-28T11:58:33;3.97;;;3.13;;
1164;SDS011;571;50.930;6.926;2023-02-28T12:01:14;3.40;;;2.70;;
1164;SDS011;571;50.930;6.926;2023-02-28T12:04:11;3.27;;;2.47;;
1164;SDS011;571;50.930;6.926;2023-02-28T12:06:50;3.03;;;2.40;;
1164;SDS011;571;50.930;6.926;2023-02-28T12:09:28;2.77;;;2.50;;
1164;SDS011;571;50.930;6.926;2023-02-28T12:12:04;2.63;;;2.43;;
1164;SDS011;571;50.930;6.926;2023-02-28T12:14:47;4.60;;;3.00;;
1164;SDS011;571;50.930;6.926;2023-02-28T12:17:32;5.00;;;3.13;;
1164;SDS011;571;50.930;6.926;2023-02-28T12:20:15;2.57;;;2.17;;
1164;SDS011;571;50.930;6.926;2023-02-28T12:22:52;3.10;;;2.90;;
1164;SDS011;571;50.930;6.926;2023-02-28T12:28:25;2.90;;;2.67;;
1164;SDS011;571;50.930;6.926;2023-02-28T12:30:56;3.60;;;2.77;;
1164;SDS011;571;50.930;6.926;2023-02-28T12:33:28;7.50;;;3.27;;
1164;SDS011;571;50.930;6.926;2023-02-28T12:36:11;2.67;;;2.30;;
1164;SDS011;571;50.930;6.926;2023-02-28T12:38:44;2.90;;;2.70;;
1164;SDS011;571;50.930;6.926;2023-02-28T12:41:15;3.03;;;2.53;;
1164;SDS011;571;50.930;6.926;2023-02-28T12:43:46;4.03;;;3.00;;
1164;SDS011;571;50.930;6.926;2023-02-28T12:46:17;5.43;;;3.03;;
1164;SDS011;571;50.930;6.926;2023-02-28T12:48:48;2.53;;;2.33;;
1164;SDS011;571;50.930;6.926;2023-02-28T12:51:20;3.20;;;2.90;;
1164;SDS011;571;50.930;6.926;2023-02-28T12:53:54;2.97;;;2.77;;
1164;SDS011;571;50.930;6.926;2023-02-28T12:56:30;2.60;;;2.40;;
1164;SDS011;571;50.930;6.926;2023-02-28T12:59:07;3.87;;;2.83;;
1164;SDS011;571;50.930;6.926;2023-02-28T13:01:42;3.30;;;2.50;;
1164;SDS011;571;50.930;6.926;2023-02-28T13:04:40;4.13;;;3.40;;
1164;SDS011;571;50.930;6.926;2023-02-28T13:07:19;3.03;;;2.73;;
1164;SDS011;571;50.930;6.926;2023-02-28T13:10:05;2.97;;;2.67;;
1164;SDS011;571;50.930;6.926;2023-02-28T13:12:34;2.60;;;2.40;;
1164;SDS011;571;50.930;6.926;2023-02-28T13:15:02;4.30;;;2.87;;
1164;SDS011;571;50.930;6.926;2023-02-28T13:17:37;3.87;;;3.57;;
1164;SDS011;571;50.930;6.926;2023-02-28T13:20:14;5.40;;;3.50;;
1164;SDS011;571;50.930;6.926;2023-02-28T13:22:45;3.23;;;3.00;;
1164;SDS011;571;50.930;6.926;2023-02-28T13:31:31;7.40;;;3.07;;
1164;SDS011;571;50.930;6.926;2023-02-28T13:36:41;2.97;;;2.70;;
1164;SDS011;571;50.930;6.926;2023-02-28T13:42:31;4.80;;;3.27;;
1164;SDS011;571;50.930;6.926;2023-02-28T13:45:20;3.83;;;3.43;;
1164;SDS011;571;50.930;6.926;2023-02-28T13:47:53;5.57;;;3.47;;
1164;SDS011;571;50.930;6.926;2023-02-28T13:50:29;3.20;;;2.90;;
1164;SDS011;571;50.930;6.926;2023-02-28T13:53:08;2.97;;;2.53;;
1164;SDS011;571;50.930;6.926;2023-02-28T13:55:56;2.17;;;1.67;;
1164;SDS011;571;50.930;6.926;2023-02-28T13:58:34;3.57;;;3.03;;
1164;SDS011;571;50.930;6.926;2023-02-28T14:01:12;3.97;;;3.57;;
1164;SDS011;571;50.930;6.926;2023-02-28T14:03:47;3.43;;;2.73;;
1164;SDS011;571;50.930;6.926;2023-02-28T14:06:25;4.47;;;2.50;;
1164;SDS011;571;50.930;6.926;2023-02-28T14:08:56;3.30;;;2.87;;
1164;SDS011;571;50.930;6.926;2023-02-28T14:11:30;3.20;;;2.90;;
1164;SDS011;571;50.930;6.926;2023-02-28T14:13:59;3.70;;;3.33;;
1164;SDS011;571;50.930;6.926;2023-02-28T14:16:27;3.50;;;3.20;;
1164;SDS011;571;50.930;6.926;2023-02-28T14:19:02;3.63;;;3.33;;
1164;SDS011;571;50.930;6.926;2023-02-28T14:21:38;4.70;;;3.27;;
1164;SDS011;571;50.930;6.926;2023-02-28T14:24:15;4.37;;;3.70;;
1164;SDS011;571;50.930;6.926;2023-02-28T14:26:56;4.97;;;3.33;;
1164;SDS011;571;50.930;6.926;2023-02-28T14:29:51;3.87;;;3.50;;
1164;SDS011;571;50.930;6.926;2023-02-28T14:32:51;4.30;;;3.73;;
1164;SDS011;571;50.930;6.926;2023-02-28T14:35:35;3.70;;;3.40;;
1164;SDS011;571;50.930;6.926;2023-02-28T14:38:13;3.77;;;2.97;;
1164;SDS011;571;50.930;6.926;2023-02-28T14:40:46;4.60;;;3.43;;
1164;SDS011;571;50.930;6.926;2023-02-28T14:43:20;5.37;;;3.27;;
1164;SDS011;571;50.930;6.926;2023-02-28T14:45:49;4.40;;;3.67;;
1164;SDS011;571;50.930;6.926;2023-02-28T14:48:18;3.83;;;3.40;;
1164;SDS011;571;50.930;6.926;2023-02-28T14:50:48;3.43;;;3.17;;
1164;SDS011;571;50.930;6.926;2023-02-28T14:53:17;3.90;;;3.50;;
1164;SDS011;571;50.930;6.926;2023-02-28T14:55:46;4.00;;;3.60;;
1164;SDS011;571;50.930;6.926;2023-02-28T14:58:22;4.13;;;3.70;;
1164;SDS011;571;50.930;6.926;2023-02-28T15:00:52;3.57;;;3.27;;
1164;SDS011;571;50.930;6.926;2023-02-28T15:03:20;4.50;;;3.20;;
1164;SDS011;571;50.930;6.926;2023-02-28T15:05:51;4.90;;;3.47;;
1164;SDS011;571;50.930;6.926;2023-02-28T15:08:19;4.10;;;3.70;;
1164;SDS011;571;50.930;6.926;2023-02-28T15:10:50;4.97;;;3.40;;
1164;SDS011;571;50.930;6.926;2023-02-28T15:13:21;5.00;;;3.73;;
1164;SDS011;571;50.930;6.926;2023-02-28T15:15:50;4.53;;;4.13;;
1164;SDS011;571;50.930;6.926;2023-02-28T15:18:28;3.83;;;3.33;;
1164;SDS011;571;50.930;6.926;2023-02-28T15:21:00;5.90;;;3.80;;
1164;SDS011;571;50.930;6.926;2023-02-28T15:23:30;5.53;;;4.20;;
1164;SDS011;571;50.930;6.926;2023-02-28T15:25:58;4.00;;;3.60;;
1164;SDS011;571;50.930;6.926;2023-02-28T15:28:27;6.23;;;4.20;;
1164;SDS011;571;50.930;6.926;2023-02-28T15:30:55;4.40;;;3.87;;
1164;SDS011;571;50.930;6.926;2023-02-28T15:33:23;4.80;;;3.37;;
1164;SDS011;571;50.930;6.926;2023-02-28T15:36:02;6.37;;;3.80;;
1164;SDS011;571;50.930;6.926;2023-02-28T15:38:32;3.63;;;3.20;;
1164;SDS011;571;50.930;6.926;2023-02-28T15:41:01;5.40;;;3.67;;
1164;SDS011;571;50.930;6.926;2023-02-28T15:43:36;6.27;;;4.00;;
1164;SDS011;571;50.930;6.926;2023-02-28T15:46:05;4.73;;;4.07;;
1164;SDS011;571;50.930;6.926;2023-02-28T15:48:35;4.20;;;3.87;;
1164;SDS011;571;50.930;6.926;2023-02-28T15:51:06;3.87;;;3.53;;
1164;SDS011;571;50.930;6.926;2023-02-28T15:53:36;3.83;;;3.20;;
1164;SDS011;571;50.930;6.926;2023-02-28T15:56:06;3.20;;;3.00;;
1164;SDS011;571;50.930;6.926;2023-02-28T15:58:45;5.30;;;3.30;;
1164;SDS011;571;50.930;6.926;2023-02-28T16:01:17;4.50;;;3.90;;
1164;SDS011;571;50.930;6.926;2023-02-28T16:03:48;4.00;;;3.60;;
1164;SDS011;571;50.930;6.926;2023-02-28T16:09:05;3.93;;;3.33;;
1164;SDS011;571;50.930;6.926;2023-02-28T16:11:34;6.10;;;3.77;;
1164;SDS011;571;50.930;6.926;2023-02-28T16:14:05;5.97;;;3.50;;
1164;SDS011;571;50.930;6.926;2023-02-28T16:16:34;5.60;;;3.50;;
1164;SDS011;571;50.930;6.926;2023-02-28T16:19:09;4.37;;;3.70;;
1164;SDS011;571;50.930;6.926;2023-02-28T16:21:35;3.57;;;3.10;;
1164;SDS011;571;50.930;6.926;2023-02-28T16:24:02;3.40;;;3.00;;
1164;SDS011;571;50.930;6.926;2023-02-28T16:26:35;4.00;;;3.70;;
1164;SDS011;571;50.930;6.926;2023-02-28T16:29:14;3.93;;;3.37;;
1164;SDS011;571;50.930;6.926;2023-02-28T16:31:44;4.80;;;3.60;;
1164;SDS011;571;50.930;6.926;2023-02-28T16:34:11;4.20;;;3.80;;
1164;SDS011;571;50.930;6.926;2023-02-28T16:36:38;4.70;;;3.53;;
1164;SDS011;571;50.930;6.926;2023-02-28T16:39:05;2.70;;;2.43;;
1164;SDS011;571;50.930;6.926;2023-02-28T16:41:31;5.20;;;4.03;;
1164;SDS011;571;50.930;6.926;2023-02-28T16:44:00;3.93;;;3.63;;
1164;SDS011;571;50.930;6.926;2023-02-28T16:46:29;3.53;;;3.00;;
1164;SDS011;571;50.930;6.926;2023-02-28T16:48:59;3.70;;;3.07;;
1164;SDS011;571;50.930;6.926;2023-02-28T16:51:26;4.33;;;3.67;;
1164;SDS011;571;50.930;6.926;2023-02-28T16:53:52;3.87;;;3.47;;
1164;SDS011;571;50.930;6.926;2023-02-28T16:56:20;4.07;;;3.53;;
1164;SDS011;571;50.930;6.926;2023-02-28T16:58:48;3.40;;;3.10;;
1164;SDS011;571;50.930;6.926;2023-02-28T17:01:16;4.50;;;3.27;;
1164;SDS011;571;50.930;6.926;2023-02-28T17:03:48;8.43;;;3.53;;
1164;SDS011;571;50.930;6.926;2023-02-28T17:06:16;4.67;;;3.47;;
1164;SDS011;571;50.930;6.926;2023-02-28T17:08:47;7.43;;;4.00;;
1164;SDS011;571;50.930;6.926;2023-02-28T17:11:13;3.87;;;3.57;;
1164;SDS011;571;50.930;6.926;2023-02-28T17:13:40;7.00;;;3.93;;
1164;SDS011;571;50.930;6.926;2023-02-28T17:16:09;4.27;;;3.60;;
1164;SDS011;571;50.930;6.926;2023-02-28T17:18:44;4.90;;;4.27;;
1164;SDS011;571;50.930;6.926;2023-02-28T17:21:14;5.50;;;3.47;;
1164;SDS011;571;50.930;6.926;2023-02-28T17:23:41;5.43;;;3.70;;
1164;SDS011;571;50.930;6.926;2023-02-28T17:26:11;4.40;;;4.00;;
1164;SDS011;571;50.930;6.926;2023-02-28T17:28:39;3.83;;;2.80;;
1164;SDS011;571;50.930;6.926;2023-02-28T17:31:07;3.50;;;3.20;;
1164;SDS011;571;50.930;6.926;2023-02-28T17:33:34;4.40;;;3.23;;
1164;SDS011;571;50.930;6.926;2023-02-28T17:36:00;4.30;;;3.90;;
1164;SDS011;571;50.930;6.926;2023-02-28T17:38:29;7.60;;;3.80;;
1164;SDS011;571;50.930;6.926;2023-02-28T17:40:55;4.33;;;3.30;;
1164;SDS011;571;50.930;6.926;2023-02-28T17:43:23;5.70;;;3.53;;
1164;SDS011;571;50.930;6.926;2023-02-28T17:45:50;8.57;;;5.10;;
1164;SDS011;571;50.930;6.926;2023-02-28T17:48:16;4.33;;;3.53;;
1164;SDS011;571;50.930;6.926;2023-02-28T17:50:43;6.30;;;3.80;;
1164;SDS011;571;50.930;6.926;2023-02-28T17:53:10;7.40;;;4.03;;
1164;SDS011;571;50.930;6.926;2023-02-28T17:55:38;4.67;;;4.10;;
1164;SDS011;571;50.930;6.926;2023-02-28T17:58:05;4.60;;;3.90;;
1164;SDS011;571;50.930;6.926;2023-02-28T18:00:31;7.97;;;3.70;;
1164;SDS011;571;50.930;6.926;2023-02-28T18:02:58;5.33;;;3.43;;
1164;SDS011;571;50.930;6.926;2023-02-28T18:05:25;3.97;;;3.57;;
1164;SDS011;571;50.930;6.926;2023-02-28T18:07:52;6.10;;;5.00;;
1164;SDS011;571;50.930;6.926;2023-02-28T18:10:19;5.90;;;4.20;;
1164;SDS011;571;50.930;6.926;2023-02-28T18:12:47;4.90;;;4.10;;
1164;SDS011;571;50.930;6.926;2023-02-28T18:15:16;5.80;;;4.57;;
1164;SDS011;571;50.930;6.926;2023-02-28T18:17:45;4.23;;;3.73;;
1164;SDS011;571;50.930;6.926;2023-02-28T18:20:12;5.17;;;4.67;;
1164;SDS011;571;50.930;6.926;2023-02-28T18:22:39;5.23;;;4.70;;
1164;SDS011;571;50.930;6.926;2023-02-28T18:25:07;21.60;;;4.90;;
1164;SDS011;571;50.930;6.926;2023-02-28T18:27:38;5.47;;;4.20;;
1164;SDS011;571;50.930;6.926;2023-02-28T18:30:23;6.63;;;4.43;;
1164;SDS011;571;50.930;6.926;2023-02-28T18:32:51;5.23;;;4.60;;
1164;SDS011;571;50.930;6.926;2023-02-28T18:35:17;5.00;;;4.30;;
1164;SDS011;571;50.930;6.926;2023-02-28T18:37:58;5.63;;;4.60;;
1164;SDS011;571;50.930;6.926;2023-02-28T18:40:26;4.63;;;4.23;;
1164;SDS011;571;50.930;6.926;2023-02-28T18:42:53;6.57;;;4.87;;
1164;SDS011;571;50.930;6.926;2023-02-28T18:45:20;7.77;;;4.93;;
1164;SDS011;571;50.930;6.926;2023-02-28T18:47:48;4.53;;;4.17;;
1164;SDS011;571;50.930;6.926;2023-02-28T18:50:14;8.27;;;5.30;;
1164;SDS011;571;50.930;6.926;2023-02-28T18:52:42;7.00;;;5.53;;
1164;SDS011;571;50.930;6.926;2023-02-28T18:55:09;6.13;;;5.50;;
1164;SDS011;571;50.930;6.926;2023-02-28T18:57:38;6.10;;;5.60;;
1164;SDS011;571;50.930;6.926;2023-02-28T19:00:05;5.90;;;5.30;;
1164;SDS011;571;50.930;6.926;2023-02-28T19:02:35;4.83;;;4.33;;
1164;SDS011;571;50.930;6.926;2023-02-28T19:05:04;6.73;;;5.83;;
1164;SDS011;571;50.930;6.926;2023-02-28T19:07:36;8.00;;;5.60;;
1164;SDS011;571;50.930;6.926;2023-02-28T19:10:03;6.13;;;5.53;;
1164;SDS011;571;50.930;6.926;2023-02-28T19:12:32;5.90;;;5.40;;
1164;SDS011;571;50.930;6.926;2023-02-28T19:14:59;8.87;;;6.60;;
1164;SDS011;571;50.930;6.926;2023-02-28T19:17:27;7.00;;;5.70;;
1164;SDS011;571;50.930;6.926;2023-02-28T19:19:54;5.80;;;5.17;;
1164;SDS011;571;50.930;6.926;2023-02-28T19:22:22;8.00;;;6.33;;
1164;SDS011;571;50.930;6.926;2023-02-28T19:24:49;12.80;;;8.23;;
1164;SDS011;571;50.930;6.926;2023-02-28T19:27:16;6.13;;;5.30;;
1164;SDS011;571;50.930;6.926;2023-02-28T19:29:44;7.40;;;5.70;;
1164;SDS011;571;50.930;6.926;2023-02-28T19:32:13;7.13;;;5.90;;
1164;SDS011;571;50.930;6.926;2023-02-28T19:34:40;6.90;;;5.77;;
1164;SDS011;571;50.930;6.926;2023-02-28T19:37:07;7.93;;;6.07;;
1164;SDS011;571;50.930;6.926;2023-02-28T19:39:35;6.73;;;6.03;;
1164;SDS011;571;50.930;6.926;2023-02-28T19:42:06;9.83;;;6.00;;
1164;SDS011;571;50.930;6.926;2023-02-28T19:44:33;8.20;;;6.13;;
1164;SDS011;571;50.930;6.926;2023-02-28T19:47:00;6.70;;;5.60;;
1164;SDS011;571;50.930;6.926;2023-02-28T19:49:27;6.93;;;6.23;;
1164;SDS011;571;50.930;6.926;2023-02-28T19:51:54;9.37;;;6.57;;